• Join FlightAware (Why Join?)
  • Login
  • US Flag 
05:11PM EST


 

Airport Tracker/Info


-or-


 

Live Flight TrackerFlight Track Log ✈ CCA986 ✈ 14-Jul-2013 ✈ KSFO - ZBAA / PEK

Flight Track Log - Related Links

Times and Time Zones

All times are in EDT time to prevent confusion due to time zone crossing. See the CCA986 flight status page for this flight to view local times or setup timezone preferences in your user account.

Time Position Orientation Groundspeed Altitude Reporting Facility
EDT Latitude Longitude Course Direction KTS MPH feet Rate Location/Type
05:58PM 37.6200 -122.3920 301° West 175 201  Level FlightAware
05:58PM 37.6290 -122.4120 300° West 175 201  Level FlightAware
05:58PM 37.6210 -122.3920 117° Southeast 175 201  Level FlightAware
05:59PM 37.6220 -122.3910 38° Northeast 21 24  Level FlightAware
05:59PM 37.6230 -122.3900 38° Northeast 30 35  Level FlightAware
06:00PM 37.6220 -122.3890 142° Southeast 32 37  Level FlightAware
06:00PM 37.6220 -122.3870 90° East 18 21  Level FlightAware
06:00PM 37.6210 -122.3850 122° Southeast 19 22  Level FlightAware
06:01PM 37.6200 -122.3820 113° Southeast 17 20  Level FlightAware
06:02PM 37.6120 -122.3620 117° Southeast 175 201  Level FlightAware
06:02PM 37.6190 -122.3810 295° West 19 22  Level FlightAware
06:03PM 37.6190 -122.3800 90° East 33 38  Level FlightAware
06:03PM 37.6180 -122.3780 122° Southeast 18 21  Level FlightAware
06:04PM 37.6170 -122.3740 108° East 24 28  Level FlightAware
06:04PM 37.6160 -122.3720 122° Southeast 16 18  Level FlightAware
06:05PM 37.6140 -122.3680 122° Southeast 20 23  Level FlightAware
06:05PM 37.6120 -122.3640 122° Southeast 22 25  Level FlightAware
06:06PM 37.6110 -122.3610 113° Southeast 21 24  Level FlightAware
06:06PM 37.6110 -122.3600 90° East 27 31  Level FlightAware
06:07PM 37.6140 -122.3360 81° East 175 201  Level FlightAware
06:07PM 37.6110 -122.3600 261° West 175 201  Level FlightAware
06:08PM 37.6110 -122.3590 90° East 32 37 60 Level FlightAware
06:10PM 37.6253 -122.3850 299° West 169 194 200 180 Climbing FlightAware ADS-B
06:11PM 37.6305 -122.3980 297° West 169 194 700 1,800 Climbing FlightAware ADS-B
06:11PM 37.6336 -122.4050 299° West 178 205 900 1,620 Climbing FlightAware ADS-B
06:11PM 37.6373 -122.4140 297° West 184 212 1,200 1,740 Climbing FlightAware ADS-B
06:11PM 37.6446 -122.4310 298° West 192 221 1,700 1,740 Climbing FlightAware ADS-B
06:12PM 37.6507 -122.4450 299° West 193 222 2,100 1,560 Climbing FlightAware ADS-B
06:12PM 37.6570 -122.4600 298° West 194 223 2,500 1,440 Climbing FlightAware ADS-B
06:12PM 37.6648 -122.4790 297° West 200 230 2,900 1,380 Climbing FlightAware ADS-B
06:12PM 37.6663 -122.4820 302° West 201 231 3,000 1,320 Climbing FlightAware ADS-B
06:12PM 37.6691 -122.4880 301° West 201 231 3,100 1,200 Climbing FlightAware ADS-B
06:12PM 37.6719 -122.4930 305° West 204 235 3,200 840 Climbing FlightAware ADS-B
06:13PM 37.6810 -122.5070 309° West 214 246 3,400 720 Climbing FlightAware ADS-B
06:13PM 37.6905 -122.5240 305° West 231 266 3,600 660 Climbing FlightAware ADS-B
06:13PM 37.7090 -122.5570 305° West 258 297 3,900 840 Climbing FlightAware ADS-B
06:14PM 37.7247 -122.5840 306° West 276 318 4,300 1,020 Climbing FlightAware ADS-B
06:14PM 37.7399 -122.6100 306° West 290 334 4,600 1,500 Climbing FlightAware ADS-B
06:14PM 37.7641 -122.6520 306° West 311 358 5,500 1,860 Climbing FlightAware ADS-B
06:16PM 37.8560 -122.8170 305° West 342 394 9,300 2,040 Climbing FlightAware
06:17PM 37.9000 -122.9020 303° West 359 413 10,900 2,040 Climbing FlightAware
06:18PM 37.9380 -122.9730 304° West 381 438 11,900 1,740 Climbing FlightAware
06:18PM 37.9830 -123.0570 304° West 393 452 13,400 1,980 Climbing FlightAware
06:19PM 38.0230 -123.1020 318° Northwest 403 464 14,300 1,920 Climbing FlightAware
06:20PM 38.0900 -123.1430 334° Northwest 412 474 15,600 1,860 Climbing FlightAware
06:20PM 38.1600 -123.1850 335° Northwest 421 484 16,800 1,740 Climbing FlightAware
06:21PM 38.2440 -123.2360 335° Northwest 431 496 18,100 1,680 Climbing FlightAware
06:22PM 38.3110 -123.2770 334° Northwest 437 503 19,200 1,620 Climbing FlightAware
06:22PM 38.3800 -123.3200 334° Northwest 442 509 20,200 1,500 Climbing FlightAware
06:23PM 38.4590 -123.3680 335° Northwest 449 517 21,200 1,260 Climbing FlightAware
06:24PM 38.5320 -123.4140 334° Northwest 459 528 22,000 900 Climbing FlightAware
06:24PM 38.6030 -123.4570 335° Northwest 462 532 22,400 1,440 Climbing FlightAware
06:25PM 38.6890 -123.5100 334° Northwest 466 536 24,000 1,740 Climbing FlightAware
06:26PM 38.7820 -123.5680 334° Northwest 473 544 25,000 1,260 Climbing FlightAware
06:26PM 38.8630 -123.6180 334° Northwest 477 549 25,900 1,200 Climbing FlightAware
06:27PM 38.9550 -123.6760 334° Northwest 482 555 26,800 1,020 Climbing FlightAware
06:28PM 39.0350 -123.7260 334° Northwest 487 560 27,400 960 Climbing FlightAware
06:29PM 39.1170 -123.7770 334° Northwest 493 567 28,100 900 Climbing FlightAware
06:29PM 39.2040 -123.8320 334° Northwest 499 574 28,700 780 Climbing FlightAware
06:30PM 39.2890 -123.8860 334° Northwest 504 580 29,200 780 Climbing FlightAware
06:31PM 39.3740 -123.9400 334° Northwest 501 577 29,800 840 Climbing FlightAware
06:31PM 39.4700 -124.0000 334° Northwest 506 582 30,400 720 Climbing FlightAware
06:32PM 39.5550 -124.0550 333° Northwest 508 585 30,900 480 Climbing FlightAware
06:33PM 39.6320 -124.1050 333° Northwest 517 595 31,100 120 Climbing FlightAware
06:34PM 39.7190 -124.1620 333° Northwest 517 595 31,100  Level FlightAware
06:34PM 39.7840 -124.2060 333° Northwest 517 595 31,100  Level FlightAware
06:35PM 39.8500 -124.2490 333° Northwest 517 595 31,100  Level FlightAware
06:36PM 39.9380 -124.3080 333° Northwest 517 595 31,100  Level FlightAware
06:36PM 40.0040 -124.3510 333° Northwest 517 595 31,100  Level FlightAware
06:37PM 40.0910 -124.4090 333° Northwest 517 595 31,100 600 Level FlightAware
06:38PM 40.2640 -124.5120 336° Northwest 514 592 32,000 660 Climbing FlightAware
06:38PM 40.3290 -124.5560 333° Northwest 514 592 32,000  Level FlightAware
06:39PM 40.4170 -124.6150 333° Northwest 514 592 32,000  Level FlightAware
06:40PM 40.4820 -124.6580 333° Northwest 514 592 32,000  Level FlightAware
06:40PM 40.5680 -124.7160 333° Northwest 514 592 32,000  Level FlightAware
06:41PM 40.6330 -124.7590 333° Northwest 514 592 32,000  Level FlightAware
06:42PM 40.7200 -124.8180 333° Northwest 514 592 32,000  Level FlightAware
06:42PM 40.7850 -124.8610 333° Northwest 514 592 32,000  Level FlightAware
06:43PM 40.8710 -124.9190 333° Northwest 514 592 32,000  Level FlightAware
06:44PM 40.9320 -124.9610 333° Northwest 514 592 32,000  Level FlightAware
06:45PM 41.0210 -125.0200 333° Northwest 514 592 32,000  Level FlightAware
06:45PM 41.0850 -125.0640 333° Northwest 514 592 32,000  Level FlightAware
06:46PM 41.1740 -125.1240 333° Northwest 514 592 32,000  Level FlightAware
06:47PM 41.2380 -125.1680 333° Northwest 514 592 32,000  Level FlightAware
06:48PM 41.5667 -125.3758 333° Northwest 509 586 32,000  Level Seattle Center
06:49PM 41.7153 -125.4800 332° Northwest 505 581 32,000  Level Seattle Center
06:50PM 41.8431 -125.5664 333° Northwest 516 594 32,000  Level Seattle Center
06:51PM 41.9689 -125.6536 333° Northwest 511 588 32,000  Level Seattle Center
06:52PM 42.0936 -125.7417 332° Northwest 508 585 32,000  Level Seattle Center
06:53PM 42.2194 -125.8272 333° Northwest 505 581 32,000  Level Seattle Center
06:54PM 42.3444 -125.9150 333° Northwest 506 582 32,000  Level Seattle Center
06:55PM 42.4689 -126.0025 333° Northwest 505 581 32,000  Level Seattle Center
06:56PM 42.5931 -126.0917 332° Northwest 505 581 32,000  Level Seattle Center
06:57PM 42.7181 -126.1786 333° Northwest 505 581 32,000  Level Seattle Center
06:58PM 42.8497 -126.2653 334° Northwest 504 580 32,000  Level Seattle Center
07:03PM 43.4333 -126.6500 334° Northwest 498 573 32,000  Level Oakland Oceanic (ODAPS)
07:04PM 43.6140 -126.7740 334° Northwest 501 577 32,000  Level FlightAware
07:05PM 43.6833 -126.8333 334° Northwest 495 570 32,000  Level Oakland Oceanic (ODAPS)
07:05PM 43.7290 -126.8520 334° Northwest 501 577 32,000  Level FlightAware
07:06PM 43.7960 -126.8990 333° Northwest 501 577 32,000  Level FlightAware
07:07PM 43.8800 -126.9590 333° Northwest 501 577 32,000  Level FlightAware
07:07PM 43.9990 -127.0360 335° Northwest 499 574 32,000  Level FlightAware
07:08PM 44.0700 -127.0850 334° Northwest 499 574 32,000  Level FlightAware
07:09PM 44.1770 -127.1600 334° Northwest 499 574 32,000  Level FlightAware
07:09PM 44.2560 -127.2140 334° Northwest 497 572 32,000  Level FlightAware
07:10PM 44.3610 -127.2880 334° Northwest 496 571 32,000  Level FlightAware
07:11PM 44.4190 -127.3362 334° Northwest 495 570 32,000  Level FlightAware Transoceanic
07:11PM 44.4520 -127.3520 333° Northwest 496 571 32,000  Level FlightAware
07:12PM 44.5180 -127.3990 333° Northwest 496 571 32,000  Level FlightAware
07:12PM 44.5800 -127.4440 333° Northwest 496 571 32,000  Level FlightAware
07:13PM 44.6430 -127.4890 333° Northwest 496 571 32,000  Level FlightAware
07:14PM 44.7980 -127.5940 334° Northwest 490 564 32,000  Level FlightAware
07:14PM 44.8790 -127.6510 334° Northwest 489 563 32,000  Level FlightAware
07:15PM 44.9520 -127.7030 333° Northwest 488 562 32,000  Level FlightAware
07:16PM 45.0400 -127.7660 333° Northwest 487 560 32,000  Level FlightAware
07:16PM 45.1210 -127.8230 334° Northwest 487 560 32,000  Level FlightAware
07:17PM 45.1930 -127.8750 333° Northwest 487 560 32,000  Level FlightAware
07:18PM 45.2810 -127.9390 333° Northwest 487 560 32,000  Level FlightAware
07:18PM 45.3540 -127.9920 333° Northwest 487 560 32,000  Level FlightAware
07:19PM 45.4400 -128.0540 333° Northwest 485 558 32,000  Level FlightAware
07:20PM 45.5350 -128.1230 333° Northwest 485 558 32,000  Level FlightAware
07:20PM 45.6060 -128.1750 333° Northwest 485 558 32,000  Level FlightAware
07:21PM 45.6940 -128.2390 333° Northwest 484 557 32,000  Level FlightAware
07:22PM 45.7570 -128.2880 332° Northwest 484 557 32,000  Level FlightAware
07:22PM 45.8180 -128.3340 332° Northwest 484 557 32,000  Level FlightAware
07:23PM 45.9310 -128.4140 334° Northwest 479 551 32,000  Level FlightAware
07:24PM 46.0090 -128.4730 332° Northwest 480 552 32,000  Level FlightAware
07:25PM 46.0690 -128.5190 332° Northwest 480 552 32,000  Level FlightAware
07:25PM 46.1490 -128.5800 332° Northwest 480 552 32,000  Level FlightAware
07:25PM 46.1833 -128.6000 333° Northwest 482 555 32,000  Level Oakland Oceanic (ODAPS)
07:26PM 46.2090 -128.6260 332° Northwest 480 552 32,000  Level FlightAware
07:27PM 46.2900 -128.6890 332° Northwest 480 552 32,000  Level FlightAware
07:28PM 46.3700 -128.7510 332° Northwest 480 552 32,000  Level FlightAware
07:28PM 46.4300 -128.7970 332° Northwest 480 552 32,000  Level FlightAware
07:29PM 46.4900 -128.8430 332° Northwest 480 552 32,000  Level FlightAware
07:30PM 46.5700 -128.9050 332° Northwest 480 552 32,000  Level FlightAware
07:30PM 46.6300 -128.9520 332° Northwest 480 552 32,000  Level FlightAware
07:31PM 46.6900 -128.9980 333° Northwest 480 552 32,000  Level FlightAware
07:32PM 46.7700 -129.0600 332° Northwest 480 552 32,000  Level FlightAware
07:32PM 46.8500 -129.1220 332° Northwest 480 552 32,000  Level FlightAware
07:33PM 46.9100 -129.1690 332° Northwest 480 552 32,000  Level FlightAware
07:35PM 47.2333 -129.4333 333° Northwest 470 541 32,000  Level Vancouver Center
07:36PM 47.2104 -129.3988 333° Northwest  Level FlightAware Approximate
07:36PM 47.3667 -129.5500 329° Northwest 470 541 32,000  Level Vancouver Center
07:37PM 47.3296 -129.4908 332° Northwest  Level FlightAware Approximate
07:37PM 47.4500 -129.6167 332° Northwest 460 529 32,000  Level Vancouver Center
07:38PM 47.4487 -129.5832 332° Northwest  Level FlightAware Approximate
07:38PM 47.5833 -129.7167 333° Northwest 470 541 32,000  Level Vancouver Center
07:39PM 47.5678 -129.6761 332° Northwest  Level FlightAware Approximate
07:39PM 47.6833 -129.8000 331° Northwest 460 529 32,000  Level Vancouver Center
07:40PM 47.6601 -129.8213 333° Northwest  Level Estimated
07:40PM 47.8000 -129.8833 334° Northwest 460 529 32,000  Level Vancouver Center
07:41PM 47.9167 -129.9833 330° Northwest 470 541 32,000  Level Vancouver Center
07:42PM 48.0333 -130.0833 330° Northwest 470 541 32,000  Level Vancouver Center
07:43PM 48.1333 -130.1833 326° Northwest 480 552 32,000  Level Vancouver Center
07:44PM 48.2500 -130.2667 335° Northwest 470 541 32,000  Level Vancouver Center
07:45PM 48.3833 -130.3667 334° Northwest 480 552 32,000  Level Vancouver Center
07:46PM 48.5000 -130.4500 335° Northwest 470 541 32,000  Level Vancouver Center
07:47PM 48.6000 -130.5500 327° Northwest 470 541 32,000  Level Vancouver Center
07:48PM 48.7167 -130.6333 335° Northwest 470 541 32,000  Level Vancouver Center
07:49PM 48.8500 -130.7500 330° Northwest 470 541 32,000  Level Vancouver Center
07:50PM 48.9500 -130.8500 327° Northwest 470 541 32,000  Level Vancouver Center
07:51PM 49.0667 -130.9333 335° Northwest 470 541 32,000  Level Vancouver Center
07:52PM 49.1833 -131.0333 331° Northwest 460 529 32,000  Level Vancouver Center
07:53PM 49.2833 -131.1333 327° Northwest 460 529 32,000  Level Vancouver Center
07:54PM 49.4000 -131.2167 335° Northwest 460 529 32,000  Level Vancouver Center
07:55PM 49.5167 -131.3167 331° Northwest 460 529 32,000  Level Vancouver Center
07:56PM 49.6167 -131.4167 327° Northwest 460 529 32,000  Level Vancouver Center
07:57PM 49.7333 -131.5000 335° Northwest 460 529 32,000  Level Vancouver Center
07:58PM 49.8500 -131.6000 331° Northwest 460 529 32,000  Level Vancouver Center
07:59PM 49.9500 -131.7000 327° Northwest 450 518 32,000  Level Vancouver Center
08:00PM 50.0667 -131.8000 331° Northwest 450 518 32,000  Level Vancouver Center
08:01PM 50.1667 -131.9167 323° Northwest 460 529 32,000  Level Vancouver Center
08:02PM 50.2667 -132.0167 327° Northwest 450 518 32,000  Level Vancouver Center
08:03PM 50.4000 -132.1167 334° Northwest 450 518 32,000  Level Vancouver Center
08:04PM 50.4833 -132.2000 328° Northwest 460 529 32,000  Level Vancouver Center
08:05PM 50.6000 -132.3333 324° Northwest 460 529 32,000  Level Vancouver Center
08:06PM 50.7000 -132.4333 328° Northwest 450 518 32,000  Level Vancouver Center
08:07PM 50.8167 -132.5333 332° Northwest 460 529 32,000  Level Vancouver Center
08:08PM 50.9167 -132.6667 320° Northwest 460 529 32,000  Level Vancouver Center
08:09PM 51.0333 -132.7667 332° Northwest 450 518 32,000  Level Vancouver Center
08:10PM 51.1333 -132.8667 328° Northwest 460 529 32,000  Level Vancouver Center
08:11PM 51.2333 -132.9833 324° Northwest 460 529 32,000  Level Vancouver Center
08:12PM 51.3500 -133.0833 332° Northwest 460 529 32,000 300 Level Vancouver Center
08:13PM 51.4500 -133.2000 324° Northwest 460 529 32,600 780 Climbing Vancouver Center
08:14PM 51.5667 -133.3167 328° Northwest 460 529 33,600 660 Climbing Vancouver Center
08:15PM 51.6667 -133.4333 324° Northwest 460 529 34,000 180 Climbing Vancouver Center
08:16PM 51.7833 -133.5333 332° Northwest 460 529 34,000  Level Vancouver Center
08:17PM 51.9000 -133.6167 336° Northwest 450 518 34,000  Level Anchorage Center
08:18PM 52.0000 -133.7167 328° Northwest 460 529 34,000  Level Anchorage Center
08:19PM 52.1000 -133.8500 321° Northwest 460 529 34,000  Level Anchorage Center
08:20PM 52.2167 -134.0167 319° Northwest 460 529 34,000  Level Vancouver Center
08:21PM 52.3000 -134.1167 324° Northwest 460 529 34,000  Level Vancouver Center
08:22PM 52.4167 -134.2500 325° Northwest 470 541 34,000  Level Vancouver Center
08:23PM 52.5167 -134.3500 329° Northwest 470 541 34,000  Level Vancouver Center
08:24PM 52.6167 -134.4667 325° Northwest 470 541 34,000  Level Vancouver Center
08:25PM 52.7333 -134.6000 325° Northwest 470 541 34,000  Level Vancouver Center
08:26PM 52.8333 -134.7167 325° Northwest 460 529 34,000  Level Vancouver Center
08:27PM 52.9667 -134.8000 339° North 460 529 34,000  Level Anchorage Center
08:28PM 53.0667 -134.9167 325° Northwest 460 529 34,000  Level Anchorage Center
08:29PM 53.1833 -135.0333 329° Northwest 470 541 34,000  Level Anchorage Center
08:30PM 53.2667 -135.1833 313° West 470 541 34,000  Level Vancouver Center
08:31PM 53.3667 -135.3333 318° Northwest 470 541 34,000  Level Vancouver Center
08:32PM 53.4667 -135.4333 329° Northwest 470 541 34,000  Level Vancouver Center
08:33PM 53.5833 -135.5833 323° Northwest 470 541 34,000  Level Vancouver Center
08:34PM 53.6833 -135.7000 325° Northwest 470 541 34,000  Level Vancouver Center
08:35PM 53.7833 -135.8167 325° Northwest 470 541 34,000  Level Vancouver Center
08:36PM 53.9333 -135.9167 339° North 460 529 34,000  Level Anchorage Center
08:37PM 54.0167 -136.0333 321° Northwest 470 541 34,000  Level Anchorage Center
08:38PM 54.0833 -136.2167 302° West 470 541 34,000  Level Vancouver Center
08:39PM 54.2000 -136.3167 333° Northwest 460 529 34,000  Level Anchorage Center
08:40PM 54.3000 -136.4667 319° Northwest 460 529 34,000  Level Anchorage Center
08:41PM 54.3667 -136.6500 302° West 470 541 34,000  Level Vancouver Center
08:42PM 54.4667 -136.8167 316° Northwest 460 529 34,000  Level Vancouver Center
08:43PM 54.5667 -136.9667 319° Northwest 470 541 34,000  Level Vancouver Center
08:44PM 54.6500 -137.1167 314° West 470 541 34,000  Level Vancouver Center
08:45PM 54.7500 -137.2667 319° Northwest 470 541 34,000  Level Vancouver Center
08:46PM 54.8500 -137.4167 319° Northwest 470 541 34,000  Level Vancouver Center
08:47PM 54.9667 -137.5500 327° Northwest 480 552 34,000  Level Anchorage Center
08:48PM 55.0667 -137.7167 316° Northwest 470 541 34,000  Level Anchorage Center
08:49PM 55.1667 -137.8667 319° Northwest 470 541 34,000  Level Anchorage Center
08:50PM 55.2667 -138.0333 317° Northwest 480 552 34,000  Level Anchorage Center
08:51PM 55.3500 -138.1833 314° West 480 552 34,000  Level Anchorage Center
08:52PM 55.4333 -138.4167 302° West 480 552 34,000  Level Vancouver Center
08:53PM 55.5167 -138.5667 314° West 480 552 34,000  Level Vancouver Center
08:54PM 55.6167 -138.7167 320° Northwest 480 552 34,000  Level Vancouver Center
08:55PM 55.7333 -138.8500 327° Northwest 480 552 34,000  Level Anchorage Center
08:56PM 55.8167 -139.0667 304° West 480 552 34,000  Level Vancouver Center
08:57PM 55.9167 -139.2333 317° Northwest 490 564 34,000  Level Vancouver Center
08:58PM 56.0167 -139.3833 320° Northwest 490 564 34,000  Level Vancouver Center
08:59PM 56.0833 -139.5667 303° West 490 564 34,000  Level Vancouver Center
09:00PM 56.2000 -139.7333 322° Northwest 490 564 34,000  Level Vancouver Center
09:01PM 56.3167 -139.8667 328° Northwest 480 552 34,000  Level Anchorage Center
09:02PM 56.4167 -140.0500 315° West 490 564 34,000  Level Anchorage Center
09:03PM 56.4667 -140.2833 291° West 490 564 34,000  Level Vancouver Center
09:04PM 56.5833 -140.4500 322° Northwest 490 564 34,000  Level Vancouver Center
09:05PM 56.6833 -140.6500 312° West 500 575 34,000  Level Vancouver Center
09:06PM 56.7833 -140.8167 318° Northwest 500 575 34,000  Level Vancouver Center
09:07PM 56.8333 -140.9667 301° West 510 587 34,000  Level Vancouver Center
09:08PM 56.9833 -141.1333 329° Northwest 500 575 34,000  Level Anchorage Center
09:09PM 57.0833 -141.3167 315° West 510 587 34,000  Level Anchorage Center
09:10PM 57.1833 -141.5167 313° West 510 587 34,000  Level Anchorage Center
09:11PM 57.2833 -141.7167 313° West 520 598 34,000  Level Anchorage Center
09:12PM 57.3833 -141.9000 315° West 510 587 34,000  Level Anchorage Center
09:13PM 57.4833 -142.1000 313° West 510 587 34,000  Level Anchorage Center
09:14PM 57.5833 -142.3000 313° West 520 598 34,000  Level Anchorage Center
09:15PM 57.6833 -142.5000 313° West 520 598 34,000  Level Anchorage Center
09:16PM 57.7667 -142.7000 308° West 510 587 34,000  Level Anchorage Center
09:17PM 57.8667 -142.9000 313° West 520 598 34,000  Level Anchorage Center
09:18PM 57.9667 -143.1000 313° West 520 598 34,000  Level Anchorage Center
09:19PM 58.0667 -143.3000 313° West 520 598 34,000  Level Anchorage Center
09:20PM 58.1833 -143.5500 312° West 520 598 34,000  Level Anchorage Center
09:21PM 58.2833 -143.7500 314° West 520 598 34,000  Level Anchorage Center
09:22PM 58.3667 -143.9667 306° West 520 598 34,000  Level Anchorage Center
09:23PM 58.4667 -144.1833 311° West 530 610 34,000  Level Anchorage Center
09:24PM 58.5667 -144.3833 314° West 530 610 34,000  Level Anchorage Center
09:25PM 58.6667 -144.6000 312° West 520 598 34,000  Level Anchorage Center
09:26PM 58.7667 -144.8167 312° West 530 610 34,000  Level Anchorage Center
09:27PM 58.8500 -145.0333 307° West 520 598 34,000  Level Anchorage Center
09:28PM 58.9500 -145.2500 312° West 520 598 34,000  Level Anchorage Center
09:29PM 59.0500 -145.4667 312° West 510 587 34,000  Level Anchorage Center
09:30PM 59.1333 -145.6833 307° West 510 587 34,000  Level Anchorage Center
09:31PM 59.2167 -145.9000 307° West 510 587 34,000  Level Anchorage Center
09:32PM 59.3167 -146.1167 312° West 520 598 34,000  Level Anchorage Center
09:33PM 59.4167 -146.3333 312° West 520 598 34,000  Level Anchorage Center
09:34PM 59.5167 -146.5500 312° West 510 587 34,000  Level Anchorage Center
09:35PM 59.6000 -146.7167 315° West 520 598 34,000  Level Anchorage Center
09:36PM 59.7167 -146.9167 319° Northwest 510 587 34,000  Level Anchorage Center
09:41PM 60.2720 -148.0340 319° Northwest 507 583 34,000  Level FlightAware
09:42PM 60.3410 -148.1780 314° West 507 583 34,000  Level FlightAware
09:43PM 60.4070 -148.3140 315° West 505 581 34,000  Level FlightAware
09:44PM 60.4810 -148.4700 314° West 504 580 34,000  Level FlightAware
09:44PM 60.5480 -148.6110 314° West 503 579 34,000  Level FlightAware
09:45PM 60.6160 -148.7550 314° West 502 578 34,000  Level FlightAware
09:46PM 60.6860 -148.9040 314° West 500 575 34,000  Level FlightAware
09:46PM 60.7440 -149.0290 314° West 499 574 34,000  Level FlightAware
09:47PM 60.8080 -149.1650 314° West 498 573 34,000  Level FlightAware
09:48PM 60.8750 -149.3120 313° West 496 571 34,000  Level FlightAware
09:48PM 60.9240 -149.4190 313° West 495 570 34,000  Level FlightAware
09:49PM 60.9950 -149.5740 313° West 493 567 34,000  Level FlightAware
09:50PM 61.0570 -149.7120 313° West 491 565 34,000  Level FlightAware
09:50PM 61.1090 -149.8270 313° West 489 563 34,000  Level FlightAware
09:51PM 61.1680 -149.9660 311° West 486 559 34,000  Level FlightAware
09:52PM 61.2260 -150.1330 306° West 482 555 34,000  Level FlightAware
09:52PM 61.2840 -150.2890 308° West 478 550 34,000  Level FlightAware
09:53PM 61.3370 -150.4350 307° West 476 548 34,000  Level FlightAware
09:54PM 61.3960 -150.6060 306° West 475 547 34,000  Level FlightAware
09:54PM 61.4430 -150.7440 306° West 473 544 34,000  Level FlightAware
09:55PM 61.4930 -150.8920 305° West 471 542 34,000  Level FlightAware
09:56PM 61.5430 -151.0380 306° West 470 541 34,000  Level FlightAware
09:56PM 61.5960 -151.1960 305° West 469 540 34,000  Level FlightAware
09:57PM 61.6400 -151.3260 306° West 469 540 34,000  Level FlightAware
09:58PM 61.6900 -151.4760 305° West 468 539 34,000  Level FlightAware
09:58PM 61.7460 -151.6440 305° West 467 537 34,000  Level FlightAware
09:59PM 61.7940 -151.7900 305° West 466 536 34,000  Level FlightAware
10:01PM 61.8960 -152.1070 304° West 466 536 34,000  Level FlightAware
10:01PM 61.9610 -152.3020 305° West 464 534 34,000  Level FlightAware
10:02PM 62.0080 -152.4500 304° West 465 535 34,000  Level FlightAware
10:03PM 62.0620 -152.6180 305° West 465 535 34,000  Level FlightAware
10:03PM 62.1110 -152.7740 304° West 465 535 34,000  Level FlightAware
10:04PM 62.1630 -152.9390 304° West 466 536 34,000  Level FlightAware
10:05PM 62.2110 -153.0940 304° West 465 535 34,000  Level FlightAware
10:06PM 62.2630 -153.2630 304° West 466 536 34,000  Level FlightAware
10:06PM 62.3120 -153.4220 304° West 464 534 34,000  Level FlightAware
10:07PM 62.3450 -153.5300 303° West 463 533 34,000  Level FlightAware
10:07PM 62.3920 -153.6840 303° West 462 532 34,000  Level FlightAware
10:08PM 62.4440 -153.8560 303° West 461 531 34,000  Level FlightAware
10:09PM 62.4890 -154.0070 303° West 460 529 34,000  Level FlightAware
10:10PM 62.5400 -154.1790 303° West 461 531 34,000  Level FlightAware
10:10PM 62.5730 -154.2920 302° West 460 529 34,000  Level FlightAware
10:11PM 62.6180 -154.4480 302° West 460 529 34,000  Level FlightAware
10:12PM 62.6520 -154.5680 302° West 460 529 34,000  Level FlightAware
10:13PM 62.7100 -154.7690 302° West 460 529 34,000  Level FlightAware
10:13PM 62.7440 -154.8900 302° West 460 529 34,000  Level FlightAware
10:14PM 62.7900 -155.0500 302° West 460 529 34,000  Level FlightAware
10:15PM 62.8250 -155.1710 302° West 460 529 34,000  Level FlightAware
10:15PM 62.8710 -155.3330 302° West 460 529 34,000  Level FlightAware
10:16PM 62.9050 -155.4540 302° West 460 529 34,000  Level FlightAware
10:17PM 62.9510 -155.6160 302° West 460 529 34,000  Level FlightAware
10:17PM 62.9860 -155.7370 303° West 460 529 34,000  Level FlightAware
10:18PM 63.0330 -155.9030 302° West 460 529 34,000  Level FlightAware
10:19PM 63.0670 -156.0250 302° West 460 529 34,000  Level FlightAware
10:19PM 63.1030 -156.1500 303° West 460 529 34,000  Level FlightAware
10:20PM 63.1833 -156.8167 303° West 470 541 34,000  Level Anchorage Center
10:21PM 63.2333 -157.0667 294° West 460 529 34,000  Level Anchorage Center
10:22PM 63.3000 -157.3333 299° West 460 529 34,000  Level Anchorage Center
10:23PM 63.3500 -157.6000 293° West 460 529 34,000  Level Anchorage Center
10:24PM 63.4000 -157.8667 293° West 470 541 34,000  Level Anchorage Center
10:25PM 63.4500 -158.1333 293° West 460 529 34,000  Level Anchorage Center
10:26PM 63.5000 -158.4000 293° West 460 529 34,000  Level Anchorage Center
10:27PM 63.5500 -158.6833 292° West 460 529 34,000  Level Anchorage Center
10:28PM 63.5833 -158.9500 286° West 470 541 34,000  Level Anchorage Center
10:29PM 63.6333 -159.2167 293° West 460 529 34,000  Level Anchorage Center
10:30PM 63.6833 -159.5000 292° West 470 541 34,000  Level Anchorage Center
10:31PM 63.7333 -159.7667 293° West 460 529 34,000  Level Anchorage Center
10:32PM 63.7833 -160.0500 292° West 460 529 34,000  Level Anchorage Center
10:33PM 63.8333 -160.3333 292° West 470 541 34,000  Level Anchorage Center
10:34PM 63.8667 -160.6000 286° West 470 541 34,000  Level Anchorage Center
10:35PM 63.9167 -160.8833 292° West 470 541 34,000  Level Anchorage Center
10:36PM 63.9500 -161.1833 284° West 480 552 34,000  Level Anchorage Center
10:37PM 64.0000 -161.4667 292° West 470 541 34,000  Level Anchorage Center
10:38PM 64.0333 -161.7500 285° West 480 552 34,000  Level Anchorage Center
10:39PM 64.0833 -162.0833 289° West 470 541 34,000  Level Anchorage Center
10:40PM 64.1167 -162.3667 285° West 480 552 34,000  Level Anchorage Center
10:41PM 64.1667 -162.6333 293° West 460 529 34,000  Level Anchorage Center
10:42PM 64.2000 -162.9667 283° West 470 541 34,000  Level Anchorage Center
10:43PM 64.2333 -163.2500 285° West 460 529 34,000  Level Anchorage Center
10:44PM 64.2833 -163.5500 291° West 480 552 34,000  Level Anchorage Center
10:45PM 64.3167 -163.8333 285° West 470 541 34,000  Level Anchorage Center
10:46PM 64.3500 -164.1167 285° West 470 541 34,000  Level Anchorage Center
10:47PM 64.3833 -164.4167 285° West 490 564 34,000  Level Anchorage Center
10:49PM 64.4167 -164.7167 285° West 470 541 34,000  Level Anchorage Center
10:50PM 64.4500 -165.0167 285° West 480 552 34,000  Level Anchorage Center
10:51PM 64.4833 -165.3000 285° West 450 518 34,000  Level Anchorage Center
10:52PM 64.4833 -165.6000 270° West 450 518 34,000  Level Anchorage Center
10:53PM 64.4833 -165.9000 270° West 460 529 34,000  Level Anchorage Center
10:54PM 64.4833 -166.2000 270° West 460 529 34,000  Level Anchorage Center
10:55PM 64.4833 -166.5000 270° West 460 529 34,000  Level Anchorage Center
10:56PM 64.4833 -166.8000 270° West 460 529 34,000  Level Anchorage Center
10:57PM 64.4833 -167.1000 270° West 470 541 34,000 -60 Level Anchorage Center
10:58PM 64.4667 -167.4000 263° West 470 541 33,900 -780 Descending Anchorage Center
10:59PM 64.4667 -167.7167 270° West 470 541 32,500 -960 Descending Anchorage Center
11:00PM 64.4667 -168.0167 270° West 470 541 32,000 -300 Descending Anchorage Center
11:01PM 64.4500 -168.3167 263° West 460 529 32,000  Level Anchorage Center
11:02PM 64.4500 -168.6167 270° West 470 541 32,000  Level Anchorage Center
11:03PM 64.4500 -168.9167 270° West 470 541 32,000  Level Anchorage Center
11:04PM 64.4333 -169.2167 263° West 470 541 32,000  Level Anchorage Center
11:05PM 64.4333 -169.5333 270° West 480 552 32,000  Level Anchorage Center
11:06PM 64.4333 -169.8333 270° West 470 541 32,000  Level Anchorage Center
11:07PM 64.4167 -170.1333 263° West 470 541 32,000  Level Anchorage Center
11:08PM 64.4167 -170.4500 270° West 480 552 32,000  Level Anchorage Center
11:09PM 64.4000 -170.7333 262° West 460 529 32,000  Level Anchorage Center
11:10PM 64.4000 -171.0500 270° West 470 541 32,000  Level Anchorage Center
11:11PM 64.3833 -171.3500 263° West 470 541 32,000  Level Anchorage Center
11:12PM 64.3667 -171.6500 263° West 470 541 32,000  Level Anchorage Center
11:13PM 64.3500 -171.9500 263° West 460 529 32,000  Level Anchorage Center
11:14PM 64.3667 -172.2500 277° West 480 552 32,000  Level Anchorage Center
11:15PM 64.3667 -172.5667 270° West 480 552 32,000  Level Anchorage Center
11:16PM 64.3667 -172.8667 270° West 480 552 32,000  Level Anchorage Center
11:17PM 64.3667 -173.1833 270° West 490 564 32,000  Level Anchorage Center
11:19PM 64.3679 -173.7555 271° West  Level FlightAware Approximate
11:24PM 64.4590 -175.6270 271° West 485 558 32,000  Level FlightAware
11:25PM 64.4720 -175.8250 279° West 486 559 32,000  Level FlightAware
11:26PM 64.4870 -176.0530 279° West 487 560 32,000  Level FlightAware
11:26PM 64.4990 -176.2660 278° West 486 559 32,000  Level FlightAware
11:27PM 64.5150 -176.5150 279° West 486 559 32,000  Level FlightAware
11:28PM 64.5260 -176.7200 277° West 485 558 32,000  Level FlightAware
11:29PM 64.5400 -176.9510 278° West 484 557 32,000  Level FlightAware
11:29PM 64.5500 -177.1320 277° West 484 557 32,000  Level FlightAware
11:30PM 64.5620 -177.3630 277° West 482 555 32,000  Level FlightAware
11:31PM 64.5740 -177.5820 277° West 481 554 32,000  Level FlightAware
11:31PM 64.5840 -177.7770 277° West 480 552 32,000  Level FlightAware
11:32PM 64.5920 -177.9580 276° West 479 551 32,000  Level FlightAware
11:33PM 64.6040 -178.2050 277° West 479 551 32,000  Level FlightAware
11:33PM 64.6130 -178.3890 277° West 477 549 32,000 420 Level FlightAware
11:34PM 64.6240 -178.6320 276° West 486 559 32,600 780 Climbing FlightAware
11:35PM 64.6320 -178.8150 276° West 492 566 33,100 900 Climbing FlightAware
11:36PM 64.6430 -179.0660 276° West 500 575 33,900 600 Climbing FlightAware
11:36PM 64.6510 -179.2810 275° West 504 580 34,000 60 Climbing FlightAware
11:37PM 64.6600 -179.4880 276° West 500 575 34,000  Level FlightAware
11:37PM 64.6670 -179.6920 275° West 499 574 34,000  Level FlightAware
11:38PM 64.6760 -179.9410 275° West 499 574 34,000  Level FlightAware
11:39PM 64.6830 179.8710 275° West 500 575 34,000  Level FlightAware
11:39PM 64.6890 179.6650 274° West 501 577 34,000  Level FlightAware
11:40PM 64.6960 179.4430 274° West 501 577 34,000  Level FlightAware
11:41PM 64.7010 179.2430 273° West 502 578 34,000  Level FlightAware
11:42PM 64.7090 178.9220 273° West 502 578 34,000  Level FlightAware
11:43PM 64.7180 178.5560 273° West 501 577 34,000  Level FlightAware
11:44PM 64.7240 178.3030 273° West 502 578 34,000  Level FlightAware
11:44PM 64.7270 178.1610 273° West 503 579 34,000  Level FlightAware
11:45PM 64.7300 177.9660 272° West 503 579 34,000  Level FlightAware
11:46PM 64.7380 177.5770 273° West 504 580 34,000 120 Level FlightAware
11:46PM 64.7400 177.3960 272° West 505 581 34,200 240 Climbing FlightAware
11:47PM 64.7420 177.1760 271° West 506 582 34,400 120 Climbing FlightAware
11:48PM 64.7430 177.0040 271° West 506 582 34,400  Level FlightAware
11:49PM 64.7450 176.7800 271° West 506 582 34,400  Level FlightAware
11:49PM 64.7460 176.6070 271° West 506 582 34,400 1,260 Level FlightAware
11:50PM 64.7500 176.2640 272° West 514 592 36,000 1,200 Climbing FlightAware
11:51PM 64.7520 176.0380 271° West 512 589 36,000  Level FlightAware
11:51PM 64.7520 175.7860 270° West 511 588 36,000  Level FlightAware
11:52PM 64.7530 175.6090 271° West 511 588 36,000  Level FlightAware
11:53PM 64.7530 175.3620 270° West 512 589 36,000  Level FlightAware
11:53PM 64.7520 175.1640 269° West 513 590 36,000  Level FlightAware
11:54PM 64.7520 174.9260 270° West 515 593 36,000  Level FlightAware
11:55PM 64.7510 174.6910 270° West 516 594 36,000  Level FlightAware
11:55PM 64.7490 174.5120 269° West 517 595 36,000  Level FlightAware
11:56PM 64.7480 174.2720 270° West 519 597 36,000  Level FlightAware
11:57PM 64.7450 174.0090 269° West 520 598 36,000  Level FlightAware
11:57PM 64.7430 173.7890 269° West 521 600 36,000  Level FlightAware
11:58PM 64.7400 173.5550 268° West 521 600 36,000  Level FlightAware
11:59PM 64.7370 173.3310 268° West 521 600 36,000  Level FlightAware
11:59PM 64.7340 173.1000 268° West 521 600 36,000  Level FlightAware
12:00AM 64.7280 172.7780 268° West 522 601 36,000  Level FlightAware
12:01AM 64.7250 172.5820 268° West 522 601 36,000  Level FlightAware
12:02AM 64.7200 172.3530 267° West 522 601 36,000  Level FlightAware
12:02AM 64.7150 172.1230 267° West 522 601 36,000  Level FlightAware
12:03AM 64.7100 171.8920 267° West 523 602 36,000  Level FlightAware
12:04AM 64.7040 171.6800 266° West 524 603 36,000  Level FlightAware
12:04AM 64.6990 171.4940 266° West 523 602 36,000  Level FlightAware
12:05AM 64.6920 171.2640 266° West 523 602 36,000  Level FlightAware
12:06AM 64.6870 171.0910 266° West 523 602 36,000  Level FlightAware
12:06AM 64.6800 170.8560 266° West 523 602 36,000  Level FlightAware
12:07AM 64.6740 170.6830 265° West 523 602 36,000  Level FlightAware
12:08AM 64.6690 170.5110 266° West 523 602 36,000  Level FlightAware
12:08AM 64.6620 170.2810 266° West 523 602 36,000  Level FlightAware
12:09AM 64.6570 170.1080 266° West 523 602 36,000  Level FlightAware
12:10AM 64.6500 169.8780 266° West 523 602 36,000  Level FlightAware
12:10AM 64.6450 169.7050 266° West 523 602 36,000  Level FlightAware
12:11AM 64.6390 169.4990 266° West 523 602 36,000  Level FlightAware
12:12AM 64.6340 169.3270 266° West 523 602 36,000  Level FlightAware
12:12AM 64.6280 169.1500 266° West 523 602 36,000  Level FlightAware
12:13AM 64.6210 168.9200 266° West 523 602 36,000  Level FlightAware
12:16AM 64.5470 168.2240 256° West  Level Estimated
12:17AM 64.5138 167.9225 256° West  Level Estimated
12:18AM 64.4801 167.6219 256° West  Level Estimated
12:19AM 64.4456 167.3219 255° West  Level Estimated
12:20AM 64.4106 167.0227 255° West  Level Estimated
12:21AM 64.3750 166.7243 255° West  Level Estimated
12:22AM 64.3388 166.4267 254° West  Level Estimated
12:23AM 64.3019 166.1299 254° West  Level Estimated
12:24AM 64.2645 165.8338 254° West  Level Estimated
12:25AM 64.2265 165.5386 254° West  Level Estimated
12:26AM 64.1879 165.2442 253° West  Level Estimated
12:27AM 64.1487 164.9506 253° West  Level Estimated
12:28AM 64.1089 164.6578 253° West  Level Estimated
12:29AM 64.0685 164.3659 253° West  Level Estimated
12:30AM 64.0275 164.0748 252° West  Level Estimated
12:31AM 63.9860 163.7846 252° West  Level Estimated
12:32AM 63.9438 163.4953 252° West  Level Estimated
12:33AM 63.9011 163.2068 252° West  Level Estimated
12:34AM 63.8579 162.9192 251° West  Level Estimated
12:35AM 63.8140 162.6325 251° West  Level Estimated
12:36AM 63.7696 162.3467 251° West  Level Estimated
12:37AM 63.7247 162.0618 250° West  Level Estimated
12:38AM 63.6791 161.7779 250° West  Level Estimated
12:39AM 63.6330 161.4948 250° West  Level Estimated
12:40AM 63.5864 161.2127 250° West  Level Estimated
12:41AM 63.5392 160.9315 249° West  Level Estimated
12:42AM 63.4915 160.6512 249° West  Level Estimated
12:43AM 63.4432 160.3718 249° West  Level Estimated
12:44AM 63.3943 160.0934 249° West  Level Estimated
12:45AM 63.3450 159.8160 248° West  Level Estimated
12:46AM 63.2951 159.5395 248° West  Level Estimated
12:47AM 63.2446 159.2640 248° West  Level Estimated
12:48AM 63.1936 158.9894 248° West  Level Estimated
12:49AM 63.1421 158.7158 247° West  Level Estimated
12:50AM 63.0901 158.4432 247° West  Level Estimated
12:51AM 63.0376 158.1716 247° West  Level Estimated
12:52AM 62.9845 157.9009 247° West  Level Estimated
12:53AM 62.9309 157.6313 247° West  Level Estimated
12:54AM 62.8768 157.3626 246° West  Level Estimated
12:55AM 62.8222 157.0949 246° West  Level Estimated
12:56AM 62.7671 156.8282 246° West  Level Estimated
12:57AM 62.7115 156.5625 246° West  Level Estimated
12:58AM 62.6554 156.2978 245° Southwest  Level Estimated
12:59AM 62.5988 156.0341 245° Southwest  Level Estimated
01:00AM 62.5417 155.7715 245° Southwest  Level Estimated
01:01AM 62.4841 155.5098 245° Southwest  Level Estimated
01:02AM 62.4260 155.2492 244° Southwest  Level Estimated
01:03AM 62.3674 154.9895 244° Southwest  Level Estimated
01:04AM 62.3084 154.7309 244° Southwest  Level Estimated
01:05AM 62.2489 154.4733 244° Southwest  Level Estimated
01:06AM 62.1889 154.2167 243° Southwest  Level Estimated
01:07AM 62.1284 153.9612 243° Southwest  Level Estimated
01:08AM 62.0674 153.7066 243° Southwest  Level Estimated
01:09AM 62.0060 153.4531 243° Southwest  Level Estimated
01:10AM 61.9441 153.2006 243° Southwest  Level Estimated
01:11AM 61.8818 152.9491 242° Southwest  Level Estimated
01:12AM 61.8190 152.6987 242° Southwest  Level Estimated
01:13AM 61.7558 152.4493 242° Southwest  Level Estimated
01:14AM 61.6921 152.2009 242° Southwest  Level Estimated
01:15AM 61.6279 151.9535 241° Southwest  Level Estimated
01:16AM 61.5634 151.7072 241° Southwest  Level Estimated
01:17AM 61.4983 151.4619 241° Southwest  Level Estimated
01:18AM 61.4329 151.2176 241° Southwest  Level Estimated
01:19AM 61.3670 150.9743 241° Southwest  Level Estimated
01:20AM 61.3006 150.7321 240° Southwest  Level Estimated
01:21AM 61.2338 150.4909 240° Southwest  Level Estimated
01:22AM 61.1667 150.2507 240° Southwest  Level Estimated
01:23AM 61.0990 150.0116 240° Southwest  Level Estimated
01:24AM 61.0310 149.7734 240° Southwest  Level Estimated
01:25AM 60.9626 149.5363 239° Southwest  Level Estimated
01:26AM 60.8937 149.3002 239° Southwest  Level Estimated
01:27AM 60.8244 149.0652 239° Southwest  Level Estimated
01:28AM 60.7547 148.8311 239° Southwest  Level Estimated
01:29AM 60.6846 148.5981 239° Southwest  Level Estimated
01:30AM 60.6141 148.3661 238° Southwest  Level Estimated
01:31AM 60.5432 148.1351 238° Southwest  Level Estimated
01:32AM 60.4719 147.9051 238° Southwest  Level Estimated
01:33AM 60.4002 147.6761 238° Southwest  Level Estimated
01:34AM 60.3282 147.4481 238° Southwest  Level Estimated
01:35AM 60.2557 147.2212 237° Southwest  Level Estimated
01:36AM 60.1828 146.9952 237° Southwest  Level Estimated
01:37AM 60.1096 146.7703 237° Southwest  Level Estimated
01:38AM 60.0360 146.5463 237° Southwest  Level Estimated
01:39AM 59.9620 146.3234 237° Southwest  Level Estimated
01:40AM 59.8876 146.1014 236° Southwest  Level Estimated
01:41AM 59.8129 145.8804 236° Southwest  Level Estimated
01:42AM 59.7378 145.6605 236° Southwest  Level Estimated
01:43AM 59.6623 145.4415 236° Southwest  Level Estimated
01:44AM 59.5865 145.2235 236° Southwest  Level Estimated
01:45AM 59.5103 145.0065 235° Southwest  Level Estimated
01:46AM 59.4337 144.7905 235° Southwest  Level Estimated
01:47AM 59.3568 144.5754 235° Southwest  Level Estimated
01:48AM 59.2795 144.3613 235° Southwest  Level Estimated
01:49AM 59.2019 144.1482 235° Southwest  Level Estimated
01:50AM 59.1240 143.9361 234° Southwest  Level Estimated
01:51AM 59.0457 143.7249 234° Southwest  Level Estimated
01:52AM 58.9670 143.5147 234° Southwest  Level Estimated
01:53AM 58.8880 143.3054 234° Southwest  Level Estimated
01:54AM 58.8087 143.0971 234° Southwest  Level Estimated
01:55AM 58.7290 142.8898 234° Southwest  Level Estimated
01:56AM 58.6491 142.6834 233° Southwest  Level Estimated
01:57AM 58.5687 142.4779 233° Southwest  Level Estimated
01:58AM 58.4881 142.2734 233° Southwest  Level Estimated
01:59AM 58.4071 142.0698 233° Southwest  Level Estimated
02:00AM 58.3258 141.8672 233° Southwest  Level Estimated
02:01AM 58.2442 141.6655 233° Southwest  Level Estimated
02:02AM 58.1623 141.4647 232° Southwest  Level Estimated
02:03AM 58.0801 141.2649 232° Southwest  Level Estimated
02:04AM 57.9975 141.0659 232° Southwest  Level Estimated
02:05AM 57.9146 140.8679 232° Southwest  Level Estimated
02:06AM 57.8315 140.6708 232° Southwest  Level Estimated
02:07AM 57.7480 140.4746 231° Southwest  Level Estimated
02:08AM 57.6642 140.2793 231° Southwest  Level Estimated
02:09AM 57.5802 140.0850 231° Southwest  Level Estimated
02:10AM 57.4958 139.8915 231° Southwest  Level Estimated
02:11AM 57.4112 139.6989 231° Southwest  Level Estimated
02:12AM 57.3262 139.5072 231° Southwest  Level Estimated
02:13AM 57.2410 139.3164 231° Southwest  Level Estimated
02:14AM 57.1554 139.1264 230° Southwest  Level Estimated
02:15AM 57.0696 138.9374 230° Southwest  Level Estimated
02:16AM 56.9835 138.7492 230° Southwest  Level Estimated
02:17AM 56.8971 138.5619 230° Southwest  Level Estimated
02:18AM 56.8105 138.3754 230° Southwest  Level Estimated
02:19AM 56.7235 138.1898 230° Southwest  Level Estimated
02:20AM 56.6363 138.0051 229° Southwest  Level Estimated
02:21AM 56.5488 137.8212 229° Southwest  Level Estimated
02:22AM 56.4611 137.6382 229° Southwest  Level Estimated
02:23AM 56.3731 137.4560 229° Southwest  Level Estimated
02:24AM 56.2848 137.2747 229° Southwest  Level Estimated
02:25AM 56.1962 137.0942 229° Southwest  Level Estimated
02:26AM 56.1074 136.9145 228° Southwest  Level Estimated
02:27AM 56.0183 136.7357 228° Southwest  Level Estimated
02:28AM 55.9290 136.5576 228° Southwest  Level Estimated
02:29AM 55.8394 136.3804 228° Southwest  Level Estimated
02:30AM 55.7496 136.2041 228° Southwest  Level Estimated
02:31AM 55.6595 136.0285 228° Southwest  Level Estimated
02:32AM 55.5692 135.8537 228° Southwest  Level Estimated
02:33AM 55.4786 135.6798 227° Southwest  Level Estimated
02:34AM 55.3877 135.5066 227° Southwest  Level Estimated
02:35AM 55.2967 135.3342 227° Southwest  Level Estimated
02:35AM 53.3500 137.0420 227° Southwest 515 593 38,000  Level FlightAware
02:36AM 55.2053 135.1627 227° Southwest  Level Estimated
02:36AM 53.2500 136.9230 215° Southwest 515 593 38,000  Level FlightAware
02:36AM 53.1710 136.8300 215° Southwest 514 592 38,000  Level FlightAware
02:37AM 53.1050 136.7490 216° Southwest 512 589 38,000  Level FlightAware
02:38AM 53.0420 136.6760 215° Southwest 512 589 38,000  Level FlightAware
02:38AM 52.9630 136.5840 215° Southwest 512 589 38,000  Level FlightAware
02:39AM 52.8450 136.4400 216° Southwest 511 588 38,000  Level FlightAware
02:40AM 52.7740 136.3560 216° Southwest 512 589 38,000  Level FlightAware
02:40AM 52.6940 136.2620 215° Southwest 512 589 38,000  Level FlightAware
02:41AM 52.5970 136.1500 215° Southwest 511 588 38,000  Level FlightAware
02:42AM 52.5110 136.0510 215° Southwest 513 590 38,000  Level FlightAware
02:43AM 52.4050 135.9290 215° Southwest 514 592 38,000  Level FlightAware
02:44AM 52.3240 135.8350 215° Southwest 515 593 38,000  Level FlightAware
02:45AM 52.2200 135.7160 215° Southwest 514 592 38,000  Level FlightAware
02:45AM 52.1430 135.6300 214° Southwest 513 590 38,000  Level FlightAware
02:46AM 52.0550 135.5310 215° Southwest 513 590 38,000  Level FlightAware
02:47AM 51.9670 135.4300 215° Southwest 512 589 38,000  Level FlightAware
02:47AM 51.9140 135.3720 214° Southwest 512 589 38,000  Level FlightAware
02:48AM 51.8440 135.2930 215° Southwest 512 589 38,000  Level FlightAware
02:49AM 51.7060 135.1410 214° Southwest 512 589 38,000  Level FlightAware
02:50AM 51.6310 135.0580 214° Southwest 511 588 38,000  Level FlightAware
02:50AM 51.5430 134.9620 214° Southwest 511 588 38,000  Level FlightAware
02:51AM 51.4600 134.8710 214° Southwest 511 588 38,000  Level FlightAware
02:52AM 51.3790 134.7820 214° Southwest 513 590 38,000  Level FlightAware
02:52AM 51.3020 134.6990 214° Southwest 513 590 38,000  Level FlightAware
02:53AM 51.2150 134.6050 214° Southwest 512 589 38,000  Level FlightAware
02:54AM 51.1380 134.5230 214° Southwest 511 588 38,000  Level FlightAware
02:54AM 51.0750 134.4560 214° Southwest 511 588 38,000  Level FlightAware
02:55AM 50.9920 134.3670 214° Southwest 510 587 38,000  Level FlightAware
02:56AM 50.9160 134.2490 224° Southwest 499 574 38,000  Level FlightAware
02:57AM 50.8590 134.1230 234° Southwest 496 571 38,000  Level FlightAware
02:58AM 50.8030 133.9970 235° Southwest 493 567 38,000  Level FlightAware
02:58AM 50.7550 133.8920 234° Southwest 492 566 38,000  Level FlightAware
02:59AM 50.7030 133.7760 235° Southwest 491 565 38,000  Level FlightAware
03:00AM 50.6390 133.6300 235° Southwest 491 565 38,000  Level FlightAware
03:01AM 50.5890 133.5180 235° Southwest 489 563 38,000  Level FlightAware
03:01AM 50.5310 133.3910 234° Southwest 490 564 38,000  Level FlightAware
03:02AM 50.4770 133.2720 235° Southwest 490 564 38,000  Level FlightAware
03:03AM 50.4210 133.1500 234° Southwest 490 564 38,000  Level FlightAware
03:03AM 50.3780 133.0580 234° Southwest 492 566 38,000  Level FlightAware
03:04AM 50.2840 132.8980 227° Southwest 501 577 38,000  Level FlightAware
03:05AM 50.2210 132.7990 225° Southwest 503 579 38,000  Level FlightAware
03:06AM 50.1470 132.6860 224° Southwest 504 580 38,000  Level FlightAware
03:07AM 50.0490 132.5450 223° Southwest 508 585 38,000  Level FlightAware
03:07AM 49.9840 132.4620 219° Southwest 510 587 38,000  Level FlightAware
03:08AM 49.8820 132.3430 217° Southwest 514 592 38,000  Level FlightAware
03:09AM 49.8130 132.2740 213° Southwest 515 593 38,000  Level FlightAware
03:09AM 49.7280 132.1900 213° Southwest 517 595 38,000  Level FlightAware
03:10AM 49.6450 132.1080 213° Southwest 519 597 38,000  Level FlightAware
03:10AM 49.5810 132.0440 213° Southwest 519 597 38,000  Level FlightAware
03:11AM 49.4430 131.9060 213° Southwest 518 596 38,000  Level FlightAware
03:12AM 49.3700 131.8390 211° Southwest 515 593 38,000  Level FlightAware
03:13AM 49.2660 131.7800 200° South 519 597 38,000  Level FlightAware
03:14AM 49.1630 131.7370 195° South 517 595 38,000  Level FlightAware
03:14AM 49.0740 131.7020 194° South 516 594 38,000 60 Level FlightAware
03:15AM 48.9680 131.6590 195° South 512 589 38,100 60 Climbing FlightAware
03:16AM 48.8680 131.6180 195° South 510 587 38,100  Level FlightAware
03:16AM 48.7680 131.5770 195° South 511 588 38,100  Level FlightAware
03:17AM 48.6730 131.5380 195° South 512 589 38,100  Level FlightAware
03:18AM 48.5840 131.5030 195° South 512 589 38,100  Level FlightAware
03:18AM 48.4900 131.4640 195° South 513 590 38,100  Level FlightAware
03:19AM 48.3980 131.4280 195° South 514 592 38,100  Level FlightAware
03:20AM 48.3130 131.3940 195° South 513 590 38,100  Level FlightAware
03:20AM 48.2270 131.3600 195° South 513 590 38,100  Level FlightAware
03:21AM 48.1270 131.3200 195° South 514 592 38,100  Level FlightAware
03:22AM 48.0180 131.2780 194° South 514 592 38,100  Level FlightAware
03:23AM 47.9290 131.2430 195° South 518 596 38,100  Level FlightAware
03:23AM 47.8390 131.2070 195° South 521 600 38,100  Level FlightAware
03:24AM 47.7340 131.1650 195° South 524 603 38,100  Level FlightAware
03:25AM 47.5970 131.0720 205° Southwest 509 586 38,100  Level FlightAware
03:26AM 47.4860 130.9830 208° Southwest 509 586 38,100  Level FlightAware
03:26AM 47.4160 130.9250 209° Southwest 508 585 38,100  Level FlightAware
03:27AM 47.3270 130.8530 209° Southwest 504 580 38,100  Level FlightAware
03:28AM 47.2480 130.7890 209° Southwest 501 577 38,100  Level FlightAware
03:29AM 47.1600 130.7190 208° Southwest 498 573 38,100  Level FlightAware
03:29AM 47.0830 130.6570 209° Southwest 494 568 38,100  Level FlightAware
03:29AM 47.0490 130.6300 208° Southwest 493 567 38,100  Level FlightAware
03:31AM 46.9080 130.5200 208° Southwest 493 567 38,100  Level FlightAware
03:32AM 46.8040 130.3270 232° Southwest 433 498 38,100  Level FlightAware
03:33AM 46.7650 130.1830 248° West 428 493 38,100  Level FlightAware
03:34AM 46.7320 130.0630 248° West 425 489 38,100  Level FlightAware
03:34AM 46.7010 129.9480 249° West 424 488 38,100  Level FlightAware
03:35AM 46.6690 129.8330 248° West 422 486 38,100  Level FlightAware
03:36AM 46.6460 129.7530 247° West 423 487 38,100  Level FlightAware
03:37AM 46.6150 129.6460 247° West 423 487 38,100  Level FlightAware
03:37AM 46.5910 129.5640 247° West 423 487 38,100  Level FlightAware
03:38AM 46.5520 129.4300 247° West 423 487 38,100  Level FlightAware
03:39AM 46.5280 129.3500 246° West 423 487 38,100  Level FlightAware
03:40AM 46.4970 129.2430 247° West 423 487 38,100  Level FlightAware
03:40AM 46.4740 129.1630 247° West 423 487 38,100  Level FlightAware
03:41AM 46.4350 129.0300 247° West 423 487 38,100  Level FlightAware
03:42AM 46.4030 128.9210 247° West 423 487 38,100  Level FlightAware
03:43AM 46.3790 128.8410 247° West 423 487 38,100  Level FlightAware
03:43AM 46.3560 128.7610 247° West 423 487 38,100  Level FlightAware
03:44AM 46.3250 128.6550 247° West 423 487 38,100  Level FlightAware
03:45AM 46.2820 128.5080 247° West 423 487 38,100  Level FlightAware
03:48AM 46.1098 128.1012 239° Southwest  Level Estimated
03:49AM 46.0396 127.9370 238° Southwest  Level Estimated
03:50AM 45.9692 127.7732 238° Southwest  Level Estimated
03:51AM 45.8985 127.6099 238° Southwest  Level Estimated
03:52AM 45.8276 127.4470 238° Southwest  Level Estimated
03:53AM 45.7565 127.2844 238° Southwest  Level Estimated
03:54AM 45.6851 127.1223 238° Southwest  Level Estimated
03:55AM 45.6135 126.9606 238° Southwest  Level Estimated
03:56AM 45.5417 126.7993 238° Southwest  Level Estimated
03:57AM 45.4696 126.6385 237° Southwest  Level Estimated
03:58AM 45.3973 126.4780 237° Southwest  Level Estimated
03:59AM 45.3248 126.3179 237° Southwest  Level Estimated
04:00AM 45.2521 126.1583 237° Southwest  Level Estimated
04:01AM 45.1792 125.9991 237° Southwest  Level Estimated
04:02AM 45.1060 125.8403 237° Southwest  Level Estimated
04:03AM 45.0326 125.6818 237° Southwest  Level Estimated
04:04AM 44.9590 125.5238 237° Southwest  Level Estimated
04:05AM 44.8852 125.3662 237° Southwest  Level Estimated
04:06AM 44.8112 125.2090 236° Southwest  Level Estimated
04:07AM 44.7369 125.0522 236° Southwest  Level Estimated
04:08AM 44.6624 124.8958 236° Southwest  Level Estimated
04:09AM 44.5878 124.7399 236° Southwest  Level Estimated
04:10AM 44.5129 124.5843 236° Southwest  Level Estimated
04:11AM 44.4378 124.4291 236° Southwest  Level Estimated
04:12AM 44.3625 124.2743 236° Southwest  Level Estimated
04:13AM 44.2869 124.1199 236° Southwest  Level Estimated
04:14AM 44.2112 123.9659 236° Southwest  Level Estimated
04:15AM 44.1353 123.8123 235° Southwest  Level Estimated
04:16AM 44.0592 123.6591 235° Southwest  Level Estimated
04:17AM 43.9828 123.5063 235° Southwest  Level Estimated
04:18AM 43.9063 123.3539 235° Southwest  Level Estimated
04:19AM 43.8295 123.2018 235° Southwest  Level Estimated
04:20AM 43.7526 123.0502 235° Southwest  Level Estimated
04:21AM 43.6754 122.8989 235° Southwest  Level Estimated
04:22AM 43.5981 122.7481 235° Southwest  Level Estimated
04:23AM 43.5205 122.5976 235° Southwest  Level Estimated
04:24AM 43.4428 122.4475 235° Southwest  Level Estimated
04:25AM 43.3648 122.2978 234° Southwest  Level Estimated
04:26AM 43.2867 122.1485 234° Southwest  Level Estimated
04:27AM 43.2084 121.9996 234° Southwest  Level Estimated
04:28AM 43.1298 121.8510 234° Southwest  Level Estimated
04:29AM 43.0511 121.7029 234° Southwest  Level Estimated
04:30AM 42.9722 121.5551 234° Southwest  Level Estimated
04:31AM 42.8932 121.4077 234° Southwest  Level Estimated
04:32AM 42.8139 121.2607 234° Southwest  Level Estimated
04:33AM 42.7344 121.1140 234° Southwest  Level Estimated
04:34AM 42.6548 120.9677 234° Southwest  Level Estimated
04:35AM 42.5749 120.8218 233° Southwest  Level Estimated
04:36AM 42.4949 120.6763 233° Southwest  Level Estimated
04:37AM 42.4147 120.5312 233° Southwest  Level Estimated
04:38AM 42.3343 120.3864 233° Southwest  Level Estimated
04:39AM 42.2537 120.2420 233° Southwest  Level Estimated
04:40AM 42.1730 120.0979 233° Southwest  Level Estimated
04:41AM 42.0920 119.9542 233° Southwest  Level Estimated
04:42AM 42.0109 119.8109 233° Southwest  Level Estimated
04:43AM 41.9296 119.6680 233° Southwest  Level Estimated
04:44AM 41.8482 119.5254 233° Southwest  Level Estimated
04:45AM 41.7665 119.3832 232° Southwest  Level Estimated
04:46AM 41.6847 119.2413 232° Southwest  Level Estimated
04:47AM 41.6027 119.0999 232° Southwest  Level Estimated
04:48AM 41.5206 118.9587 232° Southwest  Level Estimated
04:49AM 41.4382 118.8179 232° Southwest  Level Estimated
04:50AM 41.3557 118.6775 232° Southwest  Level Estimated
04:51AM 41.2730 118.5375 232° Southwest  Level Estimated
04:52AM 41.1902 118.3978 232° Southwest  Level Estimated
04:53AM 41.1072 118.2584 232° Southwest  Level Estimated
04:54AM 41.0240 118.1194 232° Southwest  Level Estimated
04:55AM 40.9406 117.9807 232° Southwest  Level Estimated
04:56AM 40.8571 117.8424 231° Southwest  Level Estimated
04:57AM 40.7734 117.7045 231° Southwest  Level Estimated
04:58AM 40.6896 117.5669 231° Southwest  Level Estimated
04:59AM 40.6056 117.4296 231° Southwest  Level Estimated
05:00AM 40.5214 117.2927 231° Southwest  Level Estimated
05:01AM 40.4371 117.1561 231° Southwest  Level Estimated
05:02AM 40.3526 117.0199 231° Southwest  Level Estimated
05:03AM 40.2680 116.8840 231° Southwest  Level Estimated
05:04AM 40.1832 116.7485 231° Southwest  Level Estimated
05:05AM 40.0982 116.6133 231° Southwest  Level Estimated
05:06AM 40.0801 116.5846 231° Southwest  Level Estimated
05:07AM 40.0801 116.5846 288° West  Level Estimated
05:08AM 40.0801 116.5846 288° West  Level Estimated
05:09AM 40.0801 116.5846 288° West  Level Estimated
05:10AM 40.0801 116.5846 288° West  Level Estimated
05:11AM 40.0801 116.5846 288° West  Level Estimated
05:12AM 40.0801 116.5846 288° West  Level Estimated
05:13AM 40.0801 116.5846 288° West  Level Estimated
05:14AM 40.0801 116.5846 288° West  Level Estimated
05:15AM 40.0801 116.5846 288° West  Level Estimated
05:16AM 40.0801 116.5846 288° West  Level Estimated
05:17AM 40.0801 116.5846 288° West  Level Estimated
05:18AM 40.0801 116.5846 288° West  Level Estimated
05:19AM 40.0801 116.5846 288° West  Level Estimated
05:20AM 40.0801 116.5846 288° West  Level Estimated
05:21AM 40.0801 116.5846 288° West  Level Estimated